createdAt,value
2022-08-29T00:01:29.055Z,99.90
2022-08-29T00:04:26.084Z,99.90
2022-08-29T00:07:23.132Z,99.90
2022-08-29T00:10:20.243Z,99.90
2022-08-29T00:13:17.373Z,99.90
2022-08-29T00:16:14.279Z,99.90
2022-08-29T00:19:11.188Z,99.90
2022-08-29T00:22:08.077Z,99.90
2022-08-29T00:25:07.286Z,99.90
2022-08-29T00:28:05.196Z,99.90
2022-08-29T00:31:02.228Z,99.90
2022-08-29T00:33:59.090Z,99.90
2022-08-29T00:36:56.252Z,99.90
2022-08-29T00:39:53.088Z,99.90
2022-08-29T00:42:50.004Z,99.90
2022-08-29T00:46:22.615Z,99.90
2022-08-29T00:49:42.734Z,99.90
2022-08-29T00:52:47.225Z,99.90
2022-08-29T00:55:50.275Z,99.90
2022-08-29T00:59:15.629Z,99.90
2022-08-29T01:02:12.650Z,99.90
2022-08-29T01:05:13.189Z,99.90
2022-08-29T01:08:10.971Z,99.90
2022-08-29T01:11:27.306Z,99.90
2022-08-29T01:14:27.192Z,99.90
2022-08-29T01:17:37.003Z,99.90
2022-08-29T01:20:51.767Z,99.90
2022-08-29T01:24:07.023Z,99.90
2022-08-29T01:27:07.908Z,99.90
2022-08-29T01:30:07.055Z,99.90
2022-08-29T01:33:04.091Z,99.90
2022-08-29T01:36:01.351Z,99.90
2022-08-29T01:38:58.549Z,99.90
2022-08-29T01:41:57.744Z,99.90
2022-08-29T01:44:58.417Z,99.90
2022-08-29T01:47:55.180Z,99.90
2022-08-29T01:50:52.045Z,99.90
2022-08-29T01:53:49.623Z,99.90
2022-08-29T01:56:52.056Z,99.90
2022-08-29T01:59:49.257Z,99.90
2022-08-29T02:02:46.304Z,99.90
2022-08-29T02:05:43.158Z,99.90
2022-08-29T02:08:42.841Z,99.90
2022-08-29T02:11:40.152Z,99.90
2022-08-29T02:14:37.252Z,99.90
2022-08-29T02:17:34.111Z,99.90
2022-08-29T02:20:32.232Z,99.90
2022-08-29T02:23:31.111Z,99.90
2022-08-29T02:26:28.269Z,99.90
2022-08-29T02:29:36.994Z,99.90
2022-08-29T02:32:34.872Z,99.90
2022-08-29T02:35:34.995Z,99.90
2022-08-29T02:38:34.693Z,99.90
2022-08-29T02:41:31.818Z,99.90
2022-08-29T02:44:28.973Z,99.90
2022-08-29T02:47:25.795Z,99.90
2022-08-29T02:50:25.197Z,99.90
2022-08-29T02:53:26.550Z,99.90
2022-08-29T02:56:23.422Z,99.90
2022-08-29T02:59:20.276Z,99.90
2022-08-29T03:02:17.336Z,99.90
2022-08-29T03:05:16.639Z,99.90
2022-08-29T03:08:14.287Z,99.90
2022-08-29T03:11:11.405Z,99.90
2022-08-29T03:14:08.900Z,99.90
2022-08-29T03:17:06.296Z,99.90
2022-08-29T03:20:04.363Z,99.90
2022-08-29T03:23:01.222Z,99.90
2022-08-29T03:25:58.127Z,99.90
2022-08-29T03:28:54.994Z,99.90
2022-08-29T03:31:51.844Z,99.90
2022-08-29T03:34:48.877Z,99.90
2022-08-29T03:37:46.091Z,99.90
2022-08-29T03:40:42.979Z,99.90
2022-08-29T03:43:40.361Z,99.90
2022-08-29T03:46:39.192Z,99.90
2022-08-29T03:49:36.220Z,99.90
2022-08-29T03:52:33.311Z,99.90
2022-08-29T03:55:30.172Z,99.90
2022-08-29T03:58:27.028Z,99.90
2022-08-29T04:01:28.407Z,99.90
2022-08-29T04:04:44.166Z,99.90
2022-08-29T04:07:56.321Z,99.90
2022-08-29T04:10:53.278Z,99.90
2022-08-29T04:13:52.265Z,99.90
2022-08-29T04:16:52.684Z,99.90
2022-08-29T04:19:49.549Z,99.90
2022-08-29T04:22:48.639Z,99.90
2022-08-29T04:25:45.516Z,99.90
2022-08-29T04:28:42.670Z,99.90
2022-08-29T04:31:42.827Z,99.90
2022-08-29T04:34:39.694Z,99.90
2022-08-29T04:37:36.643Z,99.90
2022-08-29T04:40:34.243Z,99.90
2022-08-29T04:43:31.188Z,99.90
2022-08-29T04:46:28.930Z,99.90
2022-08-29T04:49:26.088Z,99.90
2022-08-29T04:52:27.704Z,99.90
2022-08-29T04:55:25.932Z,99.90
2022-08-29T04:58:24.841Z,99.90
2022-08-29T05:01:26.113Z,99.90
2022-08-29T05:04:24.106Z,99.90
2022-08-29T05:07:23.461Z,99.90
2022-08-29T05:10:22.453Z,99.90
2022-08-29T05:13:19.776Z,99.90
2022-08-29T05:16:18.168Z,99.90
2022-08-29T05:19:16.123Z,99.90
2022-08-29T05:22:20.805Z,99.90
2022-08-29T05:25:18.639Z,99.90
2022-08-29T05:28:15.752Z,99.90
2022-08-29T05:31:14.571Z,99.90
2022-08-29T05:34:32.288Z,99.90
2022-08-29T05:37:29.334Z,99.90
2022-08-29T05:40:26.665Z,99.90
2022-08-29T05:43:23.601Z,99.90
2022-08-29T05:46:21.387Z,99.90
2022-08-29T05:49:18.323Z,99.90
2022-08-29T05:52:19.220Z,99.90
2022-08-29T05:55:16.112Z,99.90
2022-08-29T05:58:13.712Z,99.90
2022-08-29T06:01:27.884Z,99.90
2022-08-29T06:04:25.059Z,99.90
2022-08-29T06:07:21.908Z,99.90
2022-08-29T06:10:20.397Z,99.90
2022-08-29T06:13:17.256Z,99.90
2022-08-29T06:16:17.775Z,99.90
2022-08-29T06:19:14.709Z,99.90
2022-08-29T06:22:11.684Z,99.90
2022-08-29T06:25:35.283Z,99.90
2022-08-29T06:28:32.606Z,99.90
2022-08-29T06:31:29.691Z,99.90
2022-08-29T06:34:26.643Z,99.90
2022-08-29T06:37:23.539Z,99.90
2022-08-29T06:40:20.605Z,99.90
2022-08-29T06:43:17.482Z,99.90
2022-08-29T06:46:30.370Z,99.90
2022-08-29T06:49:27.866Z,99.90
2022-08-29T06:52:24.846Z,99.90
2022-08-29T06:55:24.013Z,99.90
2022-08-29T06:58:21.578Z,99.90
2022-08-29T07:01:21.179Z,99.90
2022-08-29T07:04:20.084Z,99.90
2022-08-29T07:07:17.746Z,99.90
2022-08-29T07:10:17.562Z,99.90
2022-08-29T07:13:18.527Z,99.90
2022-08-29T07:16:16.995Z,99.90
2022-08-29T07:19:14.266Z,99.90
2022-08-29T07:22:11.150Z,99.90
2022-08-29T07:25:10.291Z,99.90
2022-08-29T07:28:07.359Z,99.90
2022-08-29T07:31:06.448Z,99.90
2022-08-29T07:34:03.483Z,99.90
2022-08-29T07:37:00.355Z,99.90
2022-08-29T07:39:57.243Z,99.90
2022-08-29T07:42:54.154Z,99.90
2022-08-29T07:45:51.024Z,99.90
2022-08-29T07:48:48.359Z,99.90
2022-08-29T07:51:45.230Z,99.90
2022-08-29T07:54:42.077Z,99.90
2022-08-29T07:57:39.675Z,99.90
2022-08-29T08:00:36.895Z,99.90
2022-08-29T08:03:34.926Z,99.90
2022-08-29T08:06:32.407Z,99.90
2022-08-29T08:09:31.960Z,99.90
2022-08-29T08:12:29.338Z,99.90
2022-08-29T08:15:26.210Z,99.90
2022-08-29T08:18:23.226Z,99.90
2022-08-29T08:21:20.687Z,99.90
2022-08-29T08:24:19.964Z,99.90
2022-08-29T08:27:17.029Z,99.90
2022-08-29T08:30:14.385Z,99.90
2022-08-29T08:33:11.540Z,99.90
2022-08-29T08:36:23.590Z,99.90
2022-08-29T08:39:20.578Z,99.90
2022-08-29T08:42:42.308Z,99.90
2022-08-29T08:45:42.738Z,99.90
2022-08-29T08:48:40.583Z,99.90
2022-08-29T08:51:43.227Z,99.90
2022-08-29T08:55:04.920Z,99.90
2022-08-29T08:58:17.683Z,99.90
2022-08-29T09:01:26.704Z,99.90
2022-08-29T09:04:49.294Z,99.90
2022-08-29T09:08:24.458Z,99.90
2022-08-29T09:12:06.026Z,99.90
2022-08-29T09:15:14.160Z,99.80
2022-08-29T09:18:42.205Z,99.90
2022-08-29T09:21:55.433Z,99.90
2022-08-29T09:25:06.284Z,99.90
2022-08-29T09:28:07.354Z,99.90
2022-08-29T09:31:33.573Z,99.90
2022-08-29T09:35:07.248Z,99.90
2022-08-29T09:38:18.354Z,99.90
2022-08-29T09:41:28.485Z,97.30
2022-08-29T09:44:35.272Z,99.90
2022-08-29T09:47:33.942Z,99.90
2022-08-29T09:50:31.562Z,97.90
2022-08-29T09:53:28.561Z,99.90
2022-08-29T09:56:27.927Z,98.50
2022-08-29T09:59:28.404Z,96.00
2022-08-29T10:02:36.118Z,97.20
2022-08-29T10:05:38.042Z,99.40
2022-08-29T10:08:40.835Z,98.30
2022-08-29T10:11:56.620Z,97.90
2022-08-29T10:15:00.713Z,96.70
2022-08-29T10:18:42.956Z,93.50
2022-08-29T10:22:02.423Z,95.60
2022-08-29T10:25:22.501Z,96.40
2022-08-29T10:28:48.220Z,94.70
2022-08-29T10:32:12.292Z,94.80
2022-08-29T10:35:54.876Z,94.80
2022-08-29T10:39:16.150Z,94.20
2022-08-29T10:42:16.572Z,92.40
2022-08-29T10:45:28.161Z,93.20
2022-08-29T10:48:36.393Z,93.10
2022-08-29T10:51:49.714Z,91.90
2022-08-29T10:55:09.864Z,90.60
2022-08-29T10:58:27.914Z,92.20
2022-08-29T11:01:52.050Z,92.60
2022-08-29T11:04:58.005Z,93.70
2022-08-29T11:08:11.649Z,85.90
2022-08-29T11:11:12.340Z,89.60
2022-08-29T11:14:27.238Z,91.20
2022-08-29T11:17:29.684Z,85.30
2022-08-29T11:20:33.337Z,83.20
2022-08-29T11:23:43.777Z,93.60
2022-08-29T11:26:43.403Z,91.80
2022-08-29T11:29:52.109Z,82.30
2022-08-29T11:32:57.822Z,81.30
2022-08-29T11:36:27.157Z,92.20
2022-08-29T11:39:51.040Z,83.90
2022-08-29T11:42:50.740Z,83.90
2022-08-29T11:46:01.726Z,81.10
2022-08-29T11:49:30.056Z,83.60
2022-08-29T11:52:29.349Z,80.80
2022-08-29T11:56:05.860Z,77.60
2022-08-29T11:59:02.700Z,91.20
2022-08-29T12:02:01.706Z,84.80
2022-08-29T12:05:16.589Z,81.90
2022-08-29T12:08:36.803Z,77.70
2022-08-29T12:11:59.293Z,82.80
2022-08-29T12:14:56.903Z,80.60
2022-08-29T12:18:02.305Z,80.40
2022-08-29T12:21:03.035Z,90.50
2022-08-29T12:24:00.549Z,83.70
2022-08-29T12:26:57.867Z,76.20
2022-08-29T12:29:55.774Z,78.40
2022-08-29T12:33:19.424Z,79.10
2022-08-29T12:36:52.792Z,75.10
2022-08-29T12:40:28.802Z,78.40
2022-08-29T12:43:34.069Z,79.60
2022-08-29T12:46:40.496Z,76.60
2022-08-29T12:49:53.037Z,80.00
2022-08-29T12:53:25.617Z,76.70
2022-08-29T12:56:25.685Z,77.90
2022-08-29T12:59:23.197Z,74.20
2022-08-29T13:02:32.562Z,71.70
2022-08-29T13:05:32.209Z,83.40
2022-08-29T13:08:37.157Z,75.10
2022-08-29T13:11:34.075Z,84.70
2022-08-29T13:14:30.922Z,83.60
2022-08-29T13:17:41.324Z,73.20
2022-08-29T13:21:06.068Z,68.20
2022-08-29T13:24:16.487Z,78.50
2022-08-29T13:27:21.564Z,69.50
2022-08-29T13:30:25.621Z,65.10
2022-08-29T13:33:34.996Z,78.30
2022-08-29T13:36:41.460Z,73.20
2022-08-29T13:39:46.054Z,75.60
2022-08-29T13:42:45.538Z,73.90
2022-08-29T13:45:42.395Z,72.20
2022-08-29T13:48:40.796Z,71.20
2022-08-29T13:51:37.622Z,73.50
2022-08-29T13:54:35.169Z,59.80
2022-08-29T13:57:34.661Z,69.20
2022-08-29T14:00:35.455Z,61.40
2022-08-29T14:03:33.035Z,68.90
2022-08-29T14:06:32.857Z,67.10
2022-08-29T14:09:38.104Z,58.10
2022-08-29T14:12:34.971Z,62.60
2022-08-29T14:15:32.441Z,59.30
2022-08-29T14:18:29.668Z,59.10
2022-08-29T14:21:30.187Z,67.50
2022-08-29T14:24:29.380Z,61.80
2022-08-29T14:27:26.219Z,61.60
2022-08-29T14:30:25.097Z,68.10
2022-08-29T14:33:23.538Z,60.90
2022-08-29T14:36:20.386Z,68.40
2022-08-29T14:39:26.294Z,59.10
2022-08-29T14:42:23.457Z,60.40
2022-08-29T14:45:20.364Z,75.70
2022-08-29T14:48:17.954Z,75.70
2022-08-29T14:51:14.784Z,69.00
2022-08-29T14:54:13.083Z,68.10
2022-08-29T14:57:11.348Z,68.50
2022-08-29T15:00:18.679Z,73.90
2022-08-29T15:03:15.643Z,64.70
2022-08-29T15:06:13.350Z,68.50
2022-08-29T15:09:10.253Z,67.70
2022-08-29T15:12:07.404Z,70.70
2022-08-29T15:15:05.285Z,72.60
2022-08-29T15:18:05.604Z,74.70
2022-08-29T15:21:03.500Z,68.40
2022-08-29T15:24:00.396Z,66.90
2022-08-29T15:26:58.335Z,67.10
2022-08-29T15:29:57.126Z,61.50
2022-08-29T15:32:53.980Z,69.80
2022-08-29T15:35:51.215Z,67.80
2022-08-29T15:38:48.164Z,68.00
2022-08-29T15:41:45.063Z,66.00
2022-08-29T15:44:41.993Z,71.80
2022-08-29T15:47:46.088Z,63.70
2022-08-29T15:50:43.421Z,66.50
2022-08-29T15:53:40.264Z,70.30
2022-08-29T15:56:37.205Z,69.20
2022-08-29T15:59:56.568Z,68.80
2022-08-29T16:02:51.431Z,70.90
2022-08-29T16:05:48.735Z,65.80
2022-08-29T16:08:46.755Z,70.30
2022-08-29T16:11:46.594Z,69.40
2022-08-29T16:15:00.420Z,67.30
2022-08-29T16:17:59.586Z,68.80
2022-08-29T16:20:57.088Z,63.10
2022-08-29T16:23:53.982Z,69.00
2022-08-29T16:26:51.495Z,65.60
2022-08-29T16:29:48.366Z,66.40
2022-08-29T16:32:46.307Z,63.40
2022-08-29T16:35:43.532Z,63.80
2022-08-29T16:38:40.889Z,69.30
2022-08-29T16:41:37.834Z,71.60
2022-08-29T16:44:34.723Z,69.50
2022-08-29T16:47:32.442Z,66.30
2022-08-29T16:50:29.508Z,68.30
2022-08-29T16:53:26.620Z,67.50
2022-08-29T16:56:23.550Z,70.00
2022-08-29T16:59:20.371Z,65.50
2022-08-29T17:02:17.442Z,68.20
2022-08-29T17:05:14.620Z,66.60
2022-08-29T17:08:11.544Z,67.20
2022-08-29T17:11:08.538Z,71.20
2022-08-29T17:14:07.464Z,72.20
2022-08-29T17:17:04.755Z,67.20
2022-08-29T17:20:04.356Z,73.10
2022-08-29T17:23:01.334Z,70.40
2022-08-29T17:26:00.711Z,75.60
2022-08-29T17:28:59.997Z,75.00
2022-08-29T17:31:57.457Z,73.10
2022-08-29T17:34:54.287Z,72.50
2022-08-29T17:37:51.369Z,71.50
2022-08-29T17:40:54.707Z,72.90
2022-08-29T17:43:51.689Z,73.60
2022-08-29T17:46:48.533Z,74.90
2022-08-29T17:49:45.385Z,77.30
2022-08-29T17:52:42.232Z,77.60
2022-08-29T17:55:39.117Z,77.30
2022-08-29T17:58:35.965Z,78.20
2022-08-29T18:01:34.963Z,77.00
2022-08-29T18:04:32.531Z,79.30
2022-08-29T18:07:29.769Z,79.60
2022-08-29T18:10:28.252Z,80.70
2022-08-29T18:13:26.127Z,81.50
2022-08-29T18:16:23.471Z,80.40
2022-08-29T18:19:24.936Z,80.00
2022-08-29T18:22:21.805Z,80.60
2022-08-29T18:25:22.632Z,82.00
2022-08-29T18:28:20.589Z,82.40
2022-08-29T18:31:18.669Z,82.40
2022-08-29T18:34:15.880Z,81.10
2022-08-29T18:37:12.901Z,82.40
2022-08-29T18:40:11.100Z,83.50
2022-08-29T18:43:09.971Z,84.40
2022-08-29T18:46:09.370Z,83.30
2022-08-29T18:49:07.050Z,84.00
2022-08-29T18:52:04.166Z,81.60
2022-08-29T18:55:01.021Z,80.60
2022-08-29T18:57:57.909Z,82.30
2022-08-29T19:00:55.369Z,83.50
2022-08-29T19:03:58.003Z,83.90
2022-08-29T19:06:55.357Z,83.30
2022-08-29T19:09:53.038Z,82.30
2022-08-29T19:12:49.957Z,83.80
2022-08-29T19:15:47.432Z,81.80
2022-08-29T19:18:44.405Z,82.00
2022-08-29T19:21:42.365Z,83.90
2022-08-29T19:24:39.238Z,84.50
2022-08-29T19:27:45.147Z,87.40
2022-08-29T19:30:42.346Z,87.80
2022-08-29T19:33:40.054Z,88.70
2022-08-29T19:36:39.122Z,89.30
2022-08-29T19:39:35.971Z,89.80
2022-08-29T19:42:32.974Z,90.30
2022-08-29T19:45:30.368Z,90.80
2022-08-29T19:48:28.378Z,91.10
2022-08-29T19:51:25.637Z,91.10
2022-08-29T19:54:22.622Z,91.20
2022-08-29T19:57:19.745Z,91.90
2022-08-29T20:00:23.131Z,91.20
2022-08-29T20:03:19.989Z,91.80
2022-08-29T20:06:16.879Z,91.70
2022-08-29T20:09:13.768Z,92.20
2022-08-29T20:12:10.672Z,92.90
2022-08-29T20:15:10.885Z,93.00
2022-08-29T20:18:09.683Z,92.60
2022-08-29T20:21:06.950Z,92.20
2022-08-29T20:24:04.918Z,92.40
2022-08-29T20:27:02.475Z,93.00
2022-08-29T20:29:59.391Z,92.20
2022-08-29T20:32:57.148Z,91.80
2022-08-29T20:36:12.468Z,92.60
2022-08-29T20:39:13.582Z,93.30
2022-08-29T20:42:10.423Z,93.90
2022-08-29T20:45:08.130Z,94.50
2022-08-29T20:48:05.359Z,94.60
2022-08-29T20:51:06.715Z,95.00
2022-08-29T20:54:04.516Z,95.30
2022-08-29T20:57:01.389Z,95.30
2022-08-29T20:59:58.550Z,95.60
2022-08-29T21:03:13.980Z,95.80
2022-08-29T21:06:11.186Z,96.10
2022-08-29T21:09:09.082Z,96.10
2022-08-29T21:12:07.375Z,96.20
2022-08-29T21:15:04.807Z,96.80
2022-08-29T21:18:02.186Z,97.30
2022-08-29T21:20:59.081Z,97.40
2022-08-29T21:23:55.946Z,97.30
2022-08-29T21:26:53.597Z,97.40
2022-08-29T21:29:50.431Z,97.90
2022-08-29T21:32:48.224Z,98.30
2022-08-29T21:35:45.134Z,98.80
2022-08-29T21:38:55.249Z,98.40
2022-08-29T21:41:52.348Z,97.70
2022-08-29T21:44:49.198Z,97.20
2022-08-29T21:47:54.727Z,97.70
2022-08-29T21:50:56.476Z,97.10
2022-08-29T21:53:56.141Z,96.90
2022-08-29T21:56:53.215Z,98.00
2022-08-29T21:59:50.060Z,98.00
2022-08-29T22:02:48.423Z,98.90
2022-08-29T22:05:45.389Z,99.50
2022-08-29T22:08:45.995Z,99.90
2022-08-29T22:11:46.247Z,99.60
2022-08-29T22:15:01.612Z,99.90
2022-08-29T22:17:58.801Z,99.90
2022-08-29T22:20:56.362Z,99.90
2022-08-29T22:23:54.181Z,99.90
2022-08-29T22:26:51.247Z,99.90
2022-08-29T22:29:48.169Z,99.90
2022-08-29T22:32:45.029Z,99.90
2022-08-29T22:35:49.918Z,99.90
2022-08-29T22:38:53.614Z,99.70
2022-08-29T22:41:54.864Z,99.90
2022-08-29T22:45:07.157Z,99.90
2022-08-29T22:48:04.562Z,99.90
2022-08-29T22:51:01.438Z,99.90
2022-08-29T22:54:16.864Z,99.90
2022-08-29T22:57:18.372Z,99.90
2022-08-29T23:00:21.112Z,99.90
2022-08-29T23:03:18.147Z,99.90
2022-08-29T23:06:15.194Z,99.90
2022-08-29T23:09:12.945Z,99.90
2022-08-29T23:12:12.162Z,99.90
2022-08-29T23:15:14.775Z,99.90
2022-08-29T23:18:11.614Z,99.90
2022-08-29T23:21:08.542Z,99.90
2022-08-29T23:24:07.167Z,99.90
2022-08-29T23:27:04.103Z,99.90
2022-08-29T23:30:01.677Z,99.90
2022-08-29T23:32:59.319Z,99.90
2022-08-29T23:35:56.515Z,99.90
2022-08-29T23:38:53.351Z,99.90
2022-08-29T23:41:52.473Z,99.90
2022-08-29T23:44:49.370Z,99.90
2022-08-29T23:47:46.540Z,99.90
2022-08-29T23:50:44.519Z,99.90
2022-08-29T23:53:46.110Z,99.90
2022-08-29T23:56:43.445Z,99.90
2022-08-29T23:59:59.112Z,99.90
